createdAt,value
2018-03-04T00:04:12.888Z,99.90
2018-03-04T00:06:43.481Z,99.90
2018-03-04T00:09:13.284Z,99.90
2018-03-04T00:11:43.726Z,99.90
2018-03-04T00:14:13.438Z,99.90
2018-03-04T00:16:49.621Z,99.90
2018-03-04T00:19:33.878Z,99.90
2018-03-04T00:24:46.237Z,99.90
2018-03-04T00:27:14.577Z,99.90
2018-03-04T00:32:54.994Z,99.90
2018-03-04T00:35:22.501Z,99.90
2018-03-04T00:38:05.916Z,99.90
2018-03-04T00:40:55.084Z,99.90
2018-03-04T00:43:22.570Z,99.90
2018-03-04T00:45:50.071Z,99.90
2018-03-04T00:48:17.528Z,99.90
2018-03-04T00:50:45.105Z,99.90
2018-03-04T00:53:12.557Z,99.90
2018-03-04T00:55:42.861Z,99.90
2018-03-04T01:01:14.634Z,99.90
2018-03-04T01:03:43.375Z,99.90
2018-03-04T01:09:20.252Z,99.90
2018-03-04T01:11:47.692Z,99.90
2018-03-04T01:14:16.027Z,99.90
2018-03-04T01:16:46.190Z,99.90
2018-03-04T01:19:14.191Z,99.90
2018-03-04T01:21:43.880Z,99.90
2018-03-04T01:24:50.084Z,99.90
2018-03-04T01:27:18.365Z,99.90
2018-03-04T01:29:53.909Z,99.90
2018-03-04T01:32:21.383Z,99.90
2018-03-04T01:34:48.886Z,99.90
2018-03-04T01:37:16.346Z,99.90
2018-03-04T01:39:44.125Z,99.90
2018-03-04T01:42:18.206Z,99.90
2018-03-04T01:44:45.754Z,99.90
2018-03-04T01:47:15.343Z,99.90
2018-03-04T01:49:43.661Z,99.90
2018-03-04T01:52:14.224Z,99.90
2018-03-04T01:54:43.461Z,99.90
2018-03-04T01:57:14.678Z,99.90
2018-03-04T01:59:43.274Z,99.90
2018-03-04T02:02:14.658Z,99.90
2018-03-04T02:04:43.353Z,99.90
2018-03-04T02:07:13.621Z,99.90
2018-03-04T02:10:14.248Z,99.90
2018-03-04T02:12:48.893Z,99.90
2018-03-04T02:15:16.369Z,99.90
2018-03-04T02:17:48.101Z,99.90
2018-03-04T02:20:16.316Z,99.90
2018-03-04T02:22:43.770Z,99.90
2018-03-04T02:25:14.707Z,99.90
2018-03-04T02:27:43.800Z,99.90
2018-03-04T02:30:15.284Z,99.90
2018-03-04T02:32:45.816Z,99.90
2018-03-04T02:35:14.754Z,99.90
2018-03-04T02:37:43.535Z,99.90
2018-03-04T02:43:19.708Z,99.90
2018-03-04T02:45:47.923Z,99.90
2018-03-04T02:48:15.369Z,99.90
2018-03-04T02:50:52.337Z,99.90
2018-03-04T02:53:19.832Z,99.90
2018-03-04T02:55:47.306Z,99.90
2018-03-04T03:01:16.605Z,99.90
2018-03-04T03:03:44.924Z,99.90
2018-03-04T03:06:17.886Z,99.90
2018-03-04T03:08:45.734Z,99.90
2018-03-04T03:11:14.050Z,99.90
2018-03-04T03:13:44.109Z,99.90
2018-03-04T03:16:13.938Z,99.90
2018-03-04T03:19:11.428Z,99.90
2018-03-04T03:22:09.116Z,99.90
2018-03-04T03:27:42.981Z,99.90
2018-03-04T03:30:13.629Z,99.90
2018-03-04T03:35:43.556Z,99.90
2018-03-04T03:38:16.232Z,99.90
2018-03-04T03:40:44.292Z,99.90
2018-03-04T03:43:14.910Z,99.90
2018-03-04T03:45:44.094Z,99.90
2018-03-04T03:51:21.950Z,99.90
2018-03-04T03:53:49.399Z,99.90
2018-03-04T03:56:16.852Z,99.90
2018-03-04T03:58:44.314Z,99.90
2018-03-04T04:04:19.578Z,99.90
2018-03-04T04:06:47.118Z,99.90
2018-03-04T04:09:15.385Z,99.90
2018-03-04T04:11:43.686Z,99.90
2018-03-04T04:14:14.189Z,99.90
2018-03-04T04:16:43.586Z,99.90
2018-03-04T04:19:14.723Z,99.90
2018-03-04T04:21:43.661Z,99.90
2018-03-04T04:30:22.789Z,99.90
2018-03-04T04:32:50.270Z,99.90
2018-03-04T04:35:17.713Z,99.90
2018-03-04T04:37:45.935Z,99.90
2018-03-04T04:40:13.864Z,99.90
2018-03-04T04:42:45.725Z,99.90
2018-03-04T04:45:14.844Z,99.90
2018-03-04T04:53:43.743Z,99.90
2018-03-04T04:59:14.304Z,99.90
2018-03-04T05:01:44.022Z,99.90
2018-03-04T05:04:18.048Z,99.90
2018-03-04T05:06:46.310Z,99.90
2018-03-04T05:09:15.158Z,99.90
2018-03-04T05:11:44.030Z,99.90
2018-03-04T05:14:14.990Z,99.90
2018-03-04T05:16:53.893Z,99.90
2018-03-04T05:19:21.329Z,99.90
2018-03-04T05:21:48.814Z,99.90
2018-03-04T05:27:14.205Z,99.90
2018-03-04T05:29:54.097Z,99.90
2018-03-04T05:32:21.563Z,99.90
2018-03-04T05:34:49.006Z,99.90
2018-03-04T05:37:16.536Z,99.90
2018-03-04T05:42:46.466Z,99.90
2018-03-04T05:45:13.927Z,99.90
2018-03-04T05:47:44.449Z,99.90
2018-03-04T05:50:14.508Z,99.90
2018-03-04T05:52:45.523Z,99.90
2018-03-04T05:55:13.744Z,99.90
2018-03-04T05:57:42.981Z,99.90
2018-03-04T06:00:13.146Z,99.90
2018-03-04T06:03:16.388Z,99.90
2018-03-04T06:05:44.151Z,99.90
2018-03-04T06:08:17.561Z,99.90
2018-03-04T06:10:45.053Z,99.90
2018-03-04T06:13:13.489Z,99.90
2018-03-04T06:15:42.565Z,99.90
2018-03-04T06:18:13.361Z,99.90
2018-03-04T06:20:43.540Z,99.90
2018-03-04T06:23:13.809Z,99.90
2018-03-04T06:25:44.173Z,99.90
2018-03-04T06:28:13.174Z,99.90
2018-03-04T06:30:42.633Z,99.90
2018-03-04T06:33:13.718Z,99.90
2018-03-04T06:35:43.828Z,99.90
2018-03-04T06:38:13.581Z,99.90
2018-03-04T06:40:43.445Z,99.90
2018-03-04T06:43:14.247Z,99.90
2018-03-04T06:45:43.572Z,99.90
2018-03-04T06:48:13.589Z,99.90
2018-03-04T06:50:42.438Z,99.90
2018-03-04T06:53:13.299Z,99.90
2018-03-04T06:55:43.587Z,99.90
2018-03-04T06:58:13.624Z,99.90
2018-03-04T07:00:43.248Z,99.90
2018-03-04T07:03:13.585Z,99.90
2018-03-04T07:05:43.804Z,99.90
2018-03-04T07:08:13.437Z,99.90
2018-03-04T07:10:52.790Z,99.90
2018-03-04T07:13:22.897Z,99.90
2018-03-04T07:15:51.132Z,99.90
2018-03-04T07:18:21.082Z,99.90
2018-03-04T07:20:49.392Z,99.90
2018-03-04T07:23:16.841Z,99.90
2018-03-04T07:25:44.311Z,99.90
2018-03-04T07:28:13.302Z,99.90
2018-03-04T07:30:43.561Z,99.90
2018-03-04T07:33:13.670Z,99.90
2018-03-04T07:35:42.769Z,99.90
2018-03-04T07:38:18.599Z,99.90
2018-03-04T07:40:46.961Z,99.90
2018-03-04T07:43:14.401Z,99.90
2018-03-04T07:45:43.357Z,99.90
2018-03-04T07:48:12.323Z,99.90
2018-03-04T07:50:43.611Z,99.90
2018-03-04T07:53:13.885Z,99.90
2018-03-04T07:55:45.822Z,99.90
2018-03-04T07:58:14.296Z,99.90
2018-03-04T08:00:41.849Z,99.90
2018-03-04T08:03:10.495Z,99.90
2018-03-04T08:05:40.817Z,99.90
2018-03-04T08:08:12.001Z,99.90
2018-03-04T08:10:40.069Z,99.90
2018-03-04T08:13:11.824Z,99.90
2018-03-04T08:15:43.698Z,99.90
2018-03-04T08:18:13.505Z,99.90
2018-03-04T08:20:43.878Z,99.90
2018-03-04T08:23:13.887Z,99.90
2018-03-04T08:25:43.793Z,99.90
2018-03-04T08:28:23.616Z,99.90
2018-03-04T08:30:51.126Z,99.90
2018-03-04T08:33:18.605Z,99.90
2018-03-04T08:35:46.140Z,99.90
2018-03-04T08:38:14.408Z,99.90
2018-03-04T08:40:43.033Z,99.90
2018-03-04T08:43:14.081Z,99.90
2018-03-04T08:45:43.427Z,99.90
2018-03-04T08:48:21.566Z,99.90
2018-03-04T08:50:49.087Z,99.90
2018-03-04T08:53:16.556Z,99.90
2018-03-04T08:55:44.480Z,99.90
2018-03-04T08:58:14.506Z,99.90
2018-03-04T09:00:44.190Z,99.90
2018-03-04T09:09:11.173Z,99.90
2018-03-04T09:11:42.213Z,99.90
2018-03-04T09:14:14.191Z,99.90
2018-03-04T09:16:41.677Z,99.90
2018-03-04T09:22:16.685Z,99.90
2018-03-04T09:24:44.165Z,99.90
2018-03-04T09:27:13.594Z,99.90
2018-03-04T09:29:44.432Z,99.90
2018-03-04T09:35:20.633Z,99.90
2018-03-04T09:37:48.095Z,99.90
2018-03-04T09:40:23.194Z,99.90
2018-03-04T09:42:53.754Z,99.90
2018-03-04T09:45:21.292Z,99.90
2018-03-04T09:47:48.784Z,99.90
2018-03-04T09:50:17.521Z,99.90
2018-03-04T09:52:45.073Z,99.90
2018-03-04T09:55:19.417Z,99.90
2018-03-04T09:57:47.635Z,99.90
2018-03-04T10:00:15.463Z,99.90
2018-03-04T10:02:43.780Z,99.90
2018-03-04T10:05:13.827Z,99.90
2018-03-04T10:07:43.978Z,99.90
2018-03-04T10:16:27.191Z,99.90
2018-03-04T10:18:55.595Z,99.90
2018-03-04T10:21:23.064Z,99.90
2018-03-04T10:23:50.534Z,99.90
2018-03-04T10:26:17.997Z,99.90
2018-03-04T10:28:45.464Z,99.90
2018-03-04T10:31:14.037Z,99.90
2018-03-04T10:33:44.037Z,99.90
2018-03-04T10:36:14.244Z,99.90
2018-03-04T10:38:43.922Z,99.90
2018-03-04T10:41:14.299Z,99.90
2018-03-04T10:46:52.930Z,99.90
2018-03-04T10:49:20.390Z,99.90
2018-03-04T10:51:47.857Z,99.90
2018-03-04T10:54:15.325Z,99.90
2018-03-04T10:56:44.165Z,99.90
2018-03-04T10:59:14.130Z,99.90
2018-03-04T11:01:44.367Z,99.90
2018-03-04T11:04:14.242Z,99.90
2018-03-04T11:06:45.185Z,99.90
2018-03-04T11:09:14.379Z,99.90
2018-03-04T11:11:44.022Z,99.90
2018-03-04T11:14:14.044Z,99.90
2018-03-04T11:16:44.464Z,99.90
2018-03-04T11:19:15.265Z,99.90
2018-03-04T11:21:42.748Z,99.90
2018-03-04T11:27:17.652Z,99.90
2018-03-04T11:29:45.191Z,99.90
2018-03-04T11:32:47.641Z,99.90
2018-03-04T11:35:19.233Z,99.90
2018-03-04T11:37:49.093Z,99.20
2018-03-04T11:40:19.903Z,99.10
2018-03-04T11:42:47.435Z,99.10
2018-03-04T11:45:14.989Z,98.50
2018-03-04T11:47:42.480Z,98.50
2018-03-04T11:50:12.438Z,99.20
2018-03-04T11:53:17.063Z,99.90
2018-03-04T11:55:44.947Z,99.90
2018-03-04T11:58:14.233Z,97.00
2018-03-04T12:00:44.416Z,95.90
2018-03-04T12:03:12.642Z,94.00
2018-03-04T12:05:44.256Z,94.00
2018-03-04T12:08:14.285Z,93.10
2018-03-04T12:11:15.273Z,93.20
2018-03-04T12:16:47.256Z,93.20
2018-03-04T12:19:14.718Z,94.00
2018-03-04T12:21:42.244Z,94.00
2018-03-04T12:24:12.349Z,93.80
2018-03-04T12:29:54.930Z,94.40
2018-03-04T12:32:23.191Z,95.20
2018-03-04T12:38:13.475Z,95.10
2018-03-04T12:43:51.678Z,94.00
2018-03-04T12:46:20.919Z,92.70
2018-03-04T12:49:14.454Z,92.50
2018-03-04T12:51:47.652Z,92.40
2018-03-04T13:00:23.585Z,90.00
2018-03-04T13:03:14.174Z,89.80
2018-03-04T13:06:14.195Z,85.70
2018-03-04T13:14:49.326Z,82.20
2018-03-04T13:20:42.878Z,83.20
2018-03-04T13:23:14.207Z,84.40
2018-03-04T13:25:44.779Z,84.30
2018-03-04T13:28:17.013Z,84.40
2018-03-04T13:30:48.050Z,83.20
2018-03-04T13:33:15.524Z,83.70
2018-03-04T13:35:44.546Z,88.80
2018-03-04T13:38:13.173Z,88.90
2018-03-04T13:40:52.215Z,83.70
2018-03-04T13:43:19.718Z,81.60
2018-03-04T13:45:47.210Z,80.80
2018-03-04T13:48:43.074Z,79.30
2018-03-04T13:51:14.348Z,84.00
2018-03-04T13:53:43.457Z,81.80
2018-03-04T13:56:21.213Z,80.80
2018-03-04T13:58:48.661Z,80.70
2018-03-04T14:01:16.599Z,81.70
2018-03-04T14:03:50.250Z,85.50
2018-03-04T14:06:17.710Z,85.00
2018-03-04T14:08:45.802Z,83.90
2018-03-04T14:11:13.734Z,84.90
2018-03-04T14:13:44.706Z,85.20
2018-03-04T14:16:14.669Z,85.00
2018-03-04T14:18:43.722Z,85.00
2018-03-04T14:21:16.986Z,85.70
2018-03-04T14:24:07.925Z,86.50
2018-03-04T14:26:37.281Z,86.50
2018-03-04T14:29:30.821Z,88.70
2018-03-04T14:32:06.754Z,90.60
2018-03-04T14:34:37.083Z,90.60
2018-03-04T14:37:06.287Z,91.10
2018-03-04T14:42:26.253Z,91.50
2018-03-04T14:44:53.845Z,91.60
2018-03-04T14:47:21.375Z,91.90
2018-03-04T14:49:48.830Z,92.50
2018-03-04T14:52:16.309Z,92.10
2018-03-04T14:54:49.857Z,92.00
2018-03-04T14:57:18.885Z,92.00
2018-03-04T14:59:46.381Z,92.00
2018-03-04T15:02:21.972Z,91.30
2018-03-04T15:04:53.446Z,91.50
2018-03-04T15:07:20.903Z,91.80
2018-03-04T15:09:49.154Z,91.00
2018-03-04T15:12:18.008Z,91.00
2018-03-04T15:14:45.630Z,90.60
2018-03-04T15:17:18.454Z,90.70
2018-03-04T15:19:45.953Z,90.80
2018-03-04T15:22:14.672Z,91.30
2018-03-04T15:25:13.101Z,91.00
2018-03-04T15:27:43.501Z,91.20
2018-03-04T15:33:24.261Z,91.70
2018-03-04T15:39:16.257Z,91.80
2018-03-04T15:48:43.412Z,93.30
2018-03-04T15:54:20.426Z,91.80
2018-03-04T15:56:47.993Z,92.40
2018-03-04T15:59:21.179Z,92.00
2018-03-04T16:04:55.491Z,92.20
2018-03-04T16:07:23.055Z,92.90
2018-03-04T16:10:17.802Z,94.10
2018-03-04T16:16:35.141Z,95.40
2018-03-04T16:19:18.447Z,96.70
2018-03-04T16:22:10.655Z,97.50
2018-03-04T16:27:49.925Z,99.10
2018-03-04T16:30:23.896Z,99.10
2018-03-04T16:32:51.340Z,99.90
2018-03-04T16:38:51.946Z,99.90
2018-03-04T16:41:46.014Z,99.90
2018-03-04T16:44:13.486Z,99.90
2018-03-04T16:47:16.851Z,99.90
2018-03-04T16:49:44.354Z,99.90
2018-03-04T16:52:17.063Z,99.90
2018-03-04T16:54:45.281Z,99.90
2018-03-04T16:57:14.320Z,99.90
2018-03-04T16:59:44.576Z,99.90
2018-03-04T17:02:15.538Z,99.90
2018-03-04T17:04:44.047Z,99.90
2018-03-04T17:07:14.259Z,99.90
2018-03-04T17:10:13.885Z,99.90
2018-03-04T17:13:09.073Z,99.90
2018-03-04T17:15:50.607Z,99.90
2018-03-04T17:18:18.081Z,99.90
2018-03-04T17:20:45.710Z,99.90
2018-03-04T17:23:14.182Z,99.90
2018-03-04T17:25:43.189Z,99.90
2018-03-04T17:28:13.202Z,99.90
2018-03-04T17:30:54.689Z,99.90
2018-03-04T17:33:22.185Z,99.90
2018-03-04T17:35:49.637Z,99.90
2018-03-04T17:38:17.121Z,99.90
2018-03-04T17:40:44.583Z,99.90
2018-03-04T17:43:13.592Z,99.90
2018-03-04T17:45:43.655Z,99.90
2018-03-04T17:48:14.997Z,99.90
2018-03-04T17:50:44.513Z,99.90
2018-03-04T17:56:24.312Z,99.90
2018-03-04T17:58:51.846Z,99.90
2018-03-04T18:01:19.320Z,99.90
2018-03-04T18:03:46.798Z,99.90
2018-03-04T18:06:14.256Z,99.90
2018-03-04T18:08:41.722Z,99.90
2018-03-04T18:11:18.606Z,99.90
2018-03-04T18:13:46.573Z,99.90
2018-03-04T18:16:14.069Z,99.90
2018-03-04T18:18:43.025Z,99.90
2018-03-04T18:21:13.049Z,99.90
2018-03-04T18:23:43.015Z,99.90
2018-03-04T18:26:14.181Z,99.90
2018-03-04T18:28:49.957Z,99.90
2018-03-04T18:31:18.802Z,99.90
2018-03-04T18:33:47.948Z,99.90
2018-03-04T18:36:15.802Z,99.90
2018-03-04T18:38:44.249Z,99.90
2018-03-04T18:41:15.921Z,99.90
2018-03-04T18:43:44.595Z,99.90
2018-03-04T18:46:14.943Z,99.90
2018-03-04T18:48:44.553Z,99.90
2018-03-04T18:51:13.420Z,99.90
2018-03-04T18:53:41.780Z,99.90
2018-03-04T18:56:10.050Z,99.90
2018-03-04T18:58:41.096Z,99.90
2018-03-04T19:01:12.769Z,99.90
2018-03-04T19:03:40.285Z,99.90
2018-03-04T19:06:12.326Z,99.90
2018-03-04T19:08:40.302Z,99.90
2018-03-04T19:11:12.285Z,99.90
2018-03-04T19:13:40.733Z,99.90
2018-03-04T19:16:13.405Z,99.90
2018-03-04T19:18:43.013Z,99.90
2018-03-04T19:21:12.272Z,99.90
2018-03-04T19:23:42.709Z,99.90
2018-03-04T19:26:20.541Z,99.90
2018-03-04T19:28:48.984Z,99.90
2018-03-04T19:31:16.441Z,99.90
2018-03-04T19:33:44.217Z,99.90
2018-03-04T19:36:13.273Z,99.90
2018-03-04T19:38:43.161Z,99.90
2018-03-04T19:41:13.005Z,99.90
2018-03-04T19:43:41.880Z,99.90
2018-03-04T19:46:12.217Z,99.90
2018-03-04T19:48:42.043Z,99.90
2018-03-04T19:51:12.913Z,99.90
2018-03-04T19:53:42.872Z,99.90
2018-03-04T19:56:12.972Z,99.90
2018-03-04T19:58:43.256Z,99.90
2018-03-04T20:01:13.037Z,99.90
2018-03-04T20:03:42.890Z,99.90
2018-03-04T20:06:12.803Z,99.90
2018-03-04T20:08:42.465Z,99.90
2018-03-04T20:11:12.390Z,99.90
2018-03-04T20:13:42.976Z,99.90
2018-03-04T20:16:13.072Z,99.90
2018-03-04T20:18:43.612Z,99.90
2018-03-04T20:21:13.067Z,99.90
2018-03-04T20:23:41.928Z,99.90
2018-03-04T20:26:12.406Z,99.90
2018-03-04T20:28:43.089Z,99.90
2018-03-04T20:31:13.249Z,99.90
2018-03-04T20:33:46.226Z,99.90
2018-03-04T20:36:13.725Z,99.90
2018-03-04T20:38:43.193Z,99.90
2018-03-04T20:41:13.464Z,99.90
2018-03-04T20:43:43.533Z,99.90
2018-03-04T20:46:13.417Z,99.90
2018-03-04T20:48:43.190Z,99.90
2018-03-04T20:51:13.410Z,99.90
2018-03-04T20:53:42.050Z,99.90
2018-03-04T20:56:12.090Z,99.90
2018-03-04T20:58:43.413Z,99.90
2018-03-04T21:01:11.558Z,99.90
2018-03-04T21:03:42.605Z,99.90
2018-03-04T21:06:10.870Z,99.90
2018-03-04T21:08:41.021Z,99.90
2018-03-04T21:11:13.265Z,99.90
2018-03-04T21:13:41.864Z,99.90
2018-03-04T21:16:11.260Z,99.90
2018-03-04T21:18:40.509Z,99.90
2018-03-04T21:21:09.493Z,99.90
2018-03-04T21:23:43.193Z,99.90
2018-03-04T21:26:10.691Z,99.90
2018-03-04T21:28:40.053Z,99.90
2018-03-04T21:31:08.956Z,99.90
2018-03-04T21:33:36.613Z,99.90
2018-03-04T21:36:06.440Z,99.90
2018-03-04T21:38:34.000Z,99.90
2018-03-04T21:41:01.903Z,99.90
2018-03-04T21:43:37.196Z,99.90
2018-03-04T21:46:12.462Z,99.90
2018-03-04T21:48:42.845Z,99.90
2018-03-04T21:51:12.417Z,99.90
2018-03-04T21:53:42.905Z,99.90
2018-03-04T21:56:12.917Z,99.90
2018-03-04T21:58:40.990Z,99.90
2018-03-04T22:01:13.322Z,99.90
2018-03-04T22:03:43.028Z,99.90
2018-03-04T22:06:13.352Z,99.90
2018-03-04T22:08:43.316Z,99.90
2018-03-04T22:11:12.961Z,99.90
2018-03-04T22:13:43.457Z,99.90
2018-03-04T22:16:13.445Z,99.90
2018-03-04T22:18:43.169Z,99.90
2018-03-04T22:21:19.132Z,99.90
2018-03-04T22:23:46.585Z,99.90
2018-03-04T22:26:14.114Z,99.90
2018-03-04T22:28:42.447Z,99.90
2018-03-04T22:31:20.343Z,99.90
2018-03-04T22:33:48.830Z,99.90
2018-03-04T22:36:16.478Z,99.90
2018-03-04T22:38:44.226Z,99.90
2018-03-04T22:41:13.828Z,99.90
2018-03-04T22:43:43.879Z,99.90
2018-03-04T22:46:13.641Z,99.90
2018-03-04T22:48:43.848Z,99.90
2018-03-04T22:51:11.351Z,99.90
2018-03-04T22:56:48.913Z,99.90
2018-03-04T22:59:16.369Z,99.90
2018-03-04T23:01:44.292Z,99.90
2018-03-04T23:04:16.198Z,99.90
2018-03-04T23:06:44.094Z,99.90
2018-03-04T23:09:13.876Z,99.90
2018-03-04T23:11:48.226Z,99.90
2018-03-04T23:14:15.674Z,99.90
2018-03-04T23:16:43.474Z,99.90
2018-03-04T23:19:14.428Z,99.90
2018-03-04T23:21:43.968Z,99.90
2018-03-04T23:24:13.302Z,99.90
2018-03-04T23:26:43.006Z,99.90
2018-03-04T23:29:17.117Z,99.90
2018-03-04T23:31:44.616Z,99.90
2018-03-04T23:34:14.214Z,99.90
2018-03-04T23:36:52.528Z,99.90
2018-03-04T23:39:19.965Z,99.90
2018-03-04T23:41:47.469Z,99.90
2018-03-04T23:44:15.672Z,99.90
2018-03-04T23:46:44.603Z,99.90
2018-03-04T23:49:18.624Z,99.90
2018-03-04T23:51:46.137Z,99.90
2018-03-04T23:54:14.641Z,99.90
2018-03-04T23:56:49.183Z,99.90
2018-03-04T23:59:16.733Z,99.90
